sensor_id;sensor_type;location;lat;lon;timestamp;P1;durP1;ratioP1;P2;durP2;ratioP2
61741;SDS011;47650;49.848;9.620;2022-10-16T00:00:40;3.00;;;2.17;;
61741;SDS011;47650;49.848;9.620;2022-10-16T00:03:14;3.00;;;1.80;;
61741;SDS011;47650;49.848;9.620;2022-10-16T00:05:40;4.93;;;2.50;;
61741;SDS011;47650;49.848;9.620;2022-10-16T00:08:08;3.88;;;2.45;;
61741;SDS011;47650;49.848;9.620;2022-10-16T00:10:34;4.88;;;4.32;;
61741;SDS011;47650;49.848;9.620;2022-10-16T00:13:01;3.60;;;3.22;;
61741;SDS011;47650;49.848;9.620;2022-10-16T00:15:27;7.38;;;4.95;;
61741;SDS011;47650;49.848;9.620;2022-10-16T00:17:53;8.65;;;4.40;;
61741;SDS011;47650;49.848;9.620;2022-10-16T00:20:18;6.72;;;4.75;;
61741;SDS011;47650;49.848;9.620;2022-10-16T00:22:43;5.75;;;5.20;;
61741;SDS011;47650;49.848;9.620;2022-10-16T00:25:09;5.25;;;4.75;;
61741;SDS011;47650;49.848;9.620;2022-10-16T00:27:34;10.20;;;9.07;;
61741;SDS011;47650;49.848;9.620;2022-10-16T00:30:06;10.57;;;9.43;;
61741;SDS011;47650;49.848;9.620;2022-10-16T00:32:35;12.50;;;9.93;;
61741;SDS011;47650;49.848;9.620;2022-10-16T00:35:01;7.93;;;7.10;;
61741;SDS011;47650;49.848;9.620;2022-10-16T00:37:29;7.38;;;5.10;;
61741;SDS011;47650;49.848;9.620;2022-10-16T00:39:55;7.25;;;6.15;;
61741;SDS011;47650;49.848;9.620;2022-10-16T00:42:20;5.70;;;5.13;;
61741;SDS011;47650;49.848;9.620;2022-10-16T00:44:54;5.32;;;4.07;;
61741;SDS011;47650;49.848;9.620;2022-10-16T00:47:26;5.88;;;4.25;;
61741;SDS011;47650;49.848;9.620;2022-10-16T00:50:06;3.30;;;2.95;;
61741;SDS011;47650;49.848;9.620;2022-10-16T00:52:34;4.07;;;2.75;;
61741;SDS011;47650;49.848;9.620;2022-10-16T00:55:00;3.80;;;3.50;;
61741;SDS011;47650;49.848;9.620;2022-10-16T00:57:28;3.80;;;2.90;;
61741;SDS011;47650;49.848;9.620;2022-10-16T01:00:03;4.45;;;2.83;;
61741;SDS011;47650;49.848;9.620;2022-10-16T01:02:31;4.10;;;2.10;;
61741;SDS011;47650;49.848;9.620;2022-10-16T01:04:56;2.47;;;1.40;;
61741;SDS011;47650;49.848;9.620;2022-10-16T01:15:08;1.92;;;1.58;;
61741;SDS011;47650;49.848;9.620;2022-10-16T01:17:51;2.33;;;1.13;;
61741;SDS011;47650;49.848;9.620;2022-10-16T01:20:31;1.88;;;1.10;;
61741;SDS011;47650;49.848;9.620;2022-10-16T01:25:49;1.13;;;1.00;;
61741;SDS011;47650;49.848;9.620;2022-10-16T01:28:42;0.85;;;0.85;;
61741;SDS011;47650;49.848;9.620;2022-10-16T01:31:15;1.08;;;0.90;;
61741;SDS011;47650;49.848;9.620;2022-10-16T01:33:45;1.67;;;0.80;;
61741;SDS011;47650;49.848;9.620;2022-10-16T01:36:14;1.25;;;0.95;;
61741;SDS011;47650;49.848;9.620;2022-10-16T01:38:50;1.95;;;1.10;;
61741;SDS011;47650;49.848;9.620;2022-10-16T01:41:27;0.90;;;0.90;;
61741;SDS011;47650;49.848;9.620;2022-10-16T01:44:12;2.03;;;0.85;;
61741;SDS011;47650;49.848;9.620;2022-10-16T01:46:42;1.88;;;1.00;;
61741;SDS011;47650;49.848;9.620;2022-10-16T01:49:10;1.08;;;0.88;;
61741;SDS011;47650;49.848;9.620;2022-10-16T01:51:37;1.63;;;0.80;;
61741;SDS011;47650;49.848;9.620;2022-10-16T01:54:04;2.10;;;1.02;;
61741;SDS011;47650;49.848;9.620;2022-10-16T01:56:34;1.25;;;0.90;;
61741;SDS011;47650;49.848;9.620;2022-10-16T01:59:03;1.13;;;1.00;;
61741;SDS011;47650;49.848;9.620;2022-10-16T02:01:32;3.42;;;1.10;;
61741;SDS011;47650;49.848;9.620;2022-10-16T02:04:02;1.98;;;1.10;;
61741;SDS011;47650;49.848;9.620;2022-10-16T02:06:38;1.88;;;0.80;;
61741;SDS011;47650;49.848;9.620;2022-10-16T02:09:03;1.63;;;1.00;;
61741;SDS011;47650;49.848;9.620;2022-10-16T02:11:29;1.10;;;1.00;;
61741;SDS011;47650;49.848;9.620;2022-10-16T02:14:04;1.60;;;1.33;;
61741;SDS011;47650;49.848;9.620;2022-10-16T02:16:35;1.58;;;1.20;;
61741;SDS011;47650;49.848;9.620;2022-10-16T02:19:03;3.30;;;1.40;;
61741;SDS011;47650;49.848;9.620;2022-10-16T02:21:30;4.53;;;1.70;;
61741;SDS011;47650;49.848;9.620;2022-10-16T02:26:36;1.92;;;1.73;;
61741;SDS011;47650;49.848;9.620;2022-10-16T02:29:12;5.35;;;2.45;;
61741;SDS011;47650;49.848;9.620;2022-10-16T02:31:43;4.05;;;2.63;;
61741;SDS011;47650;49.848;9.620;2022-10-16T02:34:12;4.88;;;2.55;;
61741;SDS011;47650;49.848;9.620;2022-10-16T02:36:40;4.10;;;2.60;;
61741;SDS011;47650;49.848;9.620;2022-10-16T02:39:08;4.10;;;3.45;;
61741;SDS011;47650;49.848;9.620;2022-10-16T02:41:35;2.20;;;2.00;;
61741;SDS011;47650;49.848;9.620;2022-10-16T02:44:00;4.03;;;2.35;;
61741;SDS011;47650;49.848;9.620;2022-10-16T02:46:26;3.30;;;2.17;;
61741;SDS011;47650;49.848;9.620;2022-10-16T02:48:51;4.10;;;2.70;;
61741;SDS011;47650;49.848;9.620;2022-10-16T02:51:17;3.53;;;2.10;;
61741;SDS011;47650;49.848;9.620;2022-10-16T02:53:43;4.60;;;3.30;;
61741;SDS011;47650;49.848;9.620;2022-10-16T02:56:10;3.63;;;2.75;;
61741;SDS011;47650;49.848;9.620;2022-10-16T02:58:38;8.02;;;4.95;;
61741;SDS011;47650;49.848;9.620;2022-10-16T03:01:05;5.53;;;4.95;;
61741;SDS011;47650;49.848;9.620;2022-10-16T03:03:30;6.72;;;4.78;;
61741;SDS011;47650;49.848;9.620;2022-10-16T03:05:55;5.25;;;4.13;;
61741;SDS011;47650;49.848;9.620;2022-10-16T03:08:21;11.05;;;5.55;;
61741;SDS011;47650;49.848;9.620;2022-10-16T03:10:48;7.63;;;5.30;;
61741;SDS011;47650;49.848;9.620;2022-10-16T03:13:14;6.55;;;5.35;;
61741;SDS011;47650;49.848;9.620;2022-10-16T03:15:39;5.55;;;4.68;;
61741;SDS011;47650;49.848;9.620;2022-10-16T03:18:05;8.02;;;5.43;;
61741;SDS011;47650;49.848;9.620;2022-10-16T03:20:34;6.85;;;5.20;;
61741;SDS011;47650;49.848;9.620;2022-10-16T03:23:00;6.30;;;4.40;;
61741;SDS011;47650;49.848;9.620;2022-10-16T03:25:25;4.80;;;4.40;;
61741;SDS011;47650;49.848;9.620;2022-10-16T03:27:51;7.18;;;5.38;;
61741;SDS011;47650;49.848;9.620;2022-10-16T03:30:18;6.72;;;4.57;;
61741;SDS011;47650;49.848;9.620;2022-10-16T03:32:44;7.82;;;4.97;;
61741;SDS011;47650;49.848;9.620;2022-10-16T03:35:10;5.68;;;4.65;;
61741;SDS011;47650;49.848;9.620;2022-10-16T03:37:35;5.85;;;4.90;;
61741;SDS011;47650;49.848;9.620;2022-10-16T03:42:28;6.95;;;4.90;;
61741;SDS011;47650;49.848;9.620;2022-10-16T03:44:55;7.65;;;5.97;;
61741;SDS011;47650;49.848;9.620;2022-10-16T03:47:21;12.98;;;6.38;;
61741;SDS011;47650;49.848;9.620;2022-10-16T03:49:48;8.40;;;5.40;;
61741;SDS011;47650;49.848;9.620;2022-10-16T03:52:14;7.22;;;3.78;;
61741;SDS011;47650;49.848;9.620;2022-10-16T03:54:39;6.97;;;5.18;;
61741;SDS011;47650;49.848;9.620;2022-10-16T03:57:04;8.27;;;5.35;;
61741;SDS011;47650;49.848;9.620;2022-10-16T03:59:31;4.90;;;4.32;;
61741;SDS011;47650;49.848;9.620;2022-10-16T04:01:57;6.32;;;3.97;;
61741;SDS011;47650;49.848;9.620;2022-10-16T04:04:23;5.72;;;4.97;;
61741;SDS011;47650;49.848;9.620;2022-10-16T04:06:51;8.35;;;5.30;;
61741;SDS011;47650;49.848;9.620;2022-10-16T04:09:17;7.70;;;5.50;;
61741;SDS011;47650;49.848;9.620;2022-10-16T04:11:42;6.38;;;5.53;;
61741;SDS011;47650;49.848;9.620;2022-10-16T04:14:08;5.28;;;4.78;;
61741;SDS011;47650;49.848;9.620;2022-10-16T04:16:33;8.00;;;7.03;;
61741;SDS011;47650;49.848;9.620;2022-10-16T04:19:03;8.70;;;6.55;;
61741;SDS011;47650;49.848;9.620;2022-10-16T04:21:30;7.75;;;6.25;;
61741;SDS011;47650;49.848;9.620;2022-10-16T04:23:55;7.53;;;5.90;;
61741;SDS011;47650;49.848;9.620;2022-10-16T04:26:21;8.07;;;5.05;;
61741;SDS011;47650;49.848;9.620;2022-10-16T04:28:46;12.23;;;7.00;;
61741;SDS011;47650;49.848;9.620;2022-10-16T04:31:11;10.57;;;5.57;;
61741;SDS011;47650;49.848;9.620;2022-10-16T04:33:37;24.65;;;21.25;;
61741;SDS011;47650;49.848;9.620;2022-10-16T04:36:03;13.63;;;11.75;;
61741;SDS011;47650;49.848;9.620;2022-10-16T04:38:28;13.57;;;10.85;;
61741;SDS011;47650;49.848;9.620;2022-10-16T04:40:54;13.23;;;9.95;;
61741;SDS011;47650;49.848;9.620;2022-10-16T04:43:20;15.95;;;11.93;;
61741;SDS011;47650;49.848;9.620;2022-10-16T04:45:45;10.95;;;9.43;;
61741;SDS011;47650;49.848;9.620;2022-10-16T04:48:13;11.65;;;9.63;;
61741;SDS011;47650;49.848;9.620;2022-10-16T04:50:38;13.80;;;9.85;;
61741;SDS011;47650;49.848;9.620;2022-10-16T04:53:03;13.23;;;8.98;;
61741;SDS011;47650;49.848;9.620;2022-10-16T04:55:29;9.32;;;7.30;;
61741;SDS011;47650;49.848;9.620;2022-10-16T04:58:02;10.07;;;8.07;;
61741;SDS011;47650;49.848;9.620;2022-10-16T05:00:31;12.27;;;7.97;;
61741;SDS011;47650;49.848;9.620;2022-10-16T05:02:57;15.40;;;9.75;;
61741;SDS011;47650;49.848;9.620;2022-10-16T05:05:24;14.85;;;9.32;;
61741;SDS011;47650;49.848;9.620;2022-10-16T05:07:51;15.85;;;11.50;;
61741;SDS011;47650;49.848;9.620;2022-10-16T05:10:18;17.02;;;12.05;;
61741;SDS011;47650;49.848;9.620;2022-10-16T05:12:44;14.70;;;10.80;;
61741;SDS011;47650;49.848;9.620;2022-10-16T05:15:09;13.18;;;10.02;;
61741;SDS011;47650;49.848;9.620;2022-10-16T05:17:35;20.05;;;12.45;;
61741;SDS011;47650;49.848;9.620;2022-10-16T05:20:03;13.35;;;10.15;;
61741;SDS011;47650;49.848;9.620;2022-10-16T05:22:29;13.50;;;10.93;;
61741;SDS011;47650;49.848;9.620;2022-10-16T05:24:55;14.48;;;10.80;;
61741;SDS011;47650;49.848;9.620;2022-10-16T05:27:20;23.25;;;15.73;;
61741;SDS011;47650;49.848;9.620;2022-10-16T05:29:46;16.73;;;13.43;;
61741;SDS011;47650;49.848;9.620;2022-10-16T05:32:12;22.02;;;13.63;;
61741;SDS011;47650;49.848;9.620;2022-10-16T05:34:39;18.02;;;11.65;;
61741;SDS011;47650;49.848;9.620;2022-10-16T05:37:04;12.13;;;9.55;;
61741;SDS011;47650;49.848;9.620;2022-10-16T05:39:32;17.55;;;11.68;;
61741;SDS011;47650;49.848;9.620;2022-10-16T05:41:58;14.77;;;11.95;;
61741;SDS011;47650;49.848;9.620;2022-10-16T05:44:23;18.08;;;12.32;;
61741;SDS011;47650;49.848;9.620;2022-10-16T05:46:49;18.92;;;14.73;;
61741;SDS011;47650;49.848;9.620;2022-10-16T05:49:16;15.13;;;12.05;;
61741;SDS011;47650;49.848;9.620;2022-10-16T05:51:43;13.90;;;10.45;;
61741;SDS011;47650;49.848;9.620;2022-10-16T05:54:10;14.13;;;10.38;;
61741;SDS011;47650;49.848;9.620;2022-10-16T05:56:35;16.80;;;11.13;;
61741;SDS011;47650;49.848;9.620;2022-10-16T05:59:00;23.65;;;18.63;;
61741;SDS011;47650;49.848;9.620;2022-10-16T06:01:26;14.38;;;11.82;;
61741;SDS011;47650;49.848;9.620;2022-10-16T06:03:52;18.15;;;15.20;;
61741;SDS011;47650;49.848;9.620;2022-10-16T06:06:21;16.80;;;14.43;;
61741;SDS011;47650;49.848;9.620;2022-10-16T06:08:49;17.48;;;15.00;;
61741;SDS011;47650;49.848;9.620;2022-10-16T06:11:16;19.50;;;17.55;;
61741;SDS011;47650;49.848;9.620;2022-10-16T06:13:43;36.72;;;27.27;;
61741;SDS011;47650;49.848;9.620;2022-10-16T06:16:11;24.02;;;21.42;;
61741;SDS011;47650;49.848;9.620;2022-10-16T06:18:37;15.35;;;13.35;;
61741;SDS011;47650;49.848;9.620;2022-10-16T06:21:10;21.88;;;15.05;;
61741;SDS011;47650;49.848;9.620;2022-10-16T06:23:38;24.83;;;14.80;;
61741;SDS011;47650;49.848;9.620;2022-10-16T06:26:14;15.13;;;11.52;;
61741;SDS011;47650;49.848;9.620;2022-10-16T06:28:41;17.08;;;11.00;;
61741;SDS011;47650;49.848;9.620;2022-10-16T06:31:08;16.65;;;12.40;;
61741;SDS011;47650;49.848;9.620;2022-10-16T06:33:35;13.27;;;11.65;;
61741;SDS011;47650;49.848;9.620;2022-10-16T06:36:08;14.57;;;10.90;;
61741;SDS011;47650;49.848;9.620;2022-10-16T06:38:38;15.60;;;13.80;;
61741;SDS011;47650;49.848;9.620;2022-10-16T06:41:03;17.50;;;15.45;;
61741;SDS011;47650;49.848;9.620;2022-10-16T06:43:36;20.15;;;16.02;;
61741;SDS011;47650;49.848;9.620;2022-10-16T06:46:03;19.60;;;16.25;;
61741;SDS011;47650;49.848;9.620;2022-10-16T06:48:31;14.20;;;12.77;;
61741;SDS011;47650;49.848;9.620;2022-10-16T06:51:03;17.20;;;15.18;;
61741;SDS011;47650;49.848;9.620;2022-10-16T06:53:40;16.00;;;13.82;;
61741;SDS011;47650;49.848;9.620;2022-10-16T06:56:14;28.13;;;21.02;;
61741;SDS011;47650;49.848;9.620;2022-10-16T06:58:47;19.75;;;17.75;;
61741;SDS011;47650;49.848;9.620;2022-10-16T07:01:14;24.95;;;16.17;;
61741;SDS011;47650;49.848;9.620;2022-10-16T07:03:42;17.58;;;14.50;;
61741;SDS011;47650;49.848;9.620;2022-10-16T07:06:10;11.27;;;10.18;;
61741;SDS011;47650;49.848;9.620;2022-10-16T07:08:37;12.15;;;9.82;;
61741;SDS011;47650;49.848;9.620;2022-10-16T07:11:05;16.70;;;13.10;;
61741;SDS011;47650;49.848;9.620;2022-10-16T07:13:39;10.90;;;9.73;;
61741;SDS011;47650;49.848;9.620;2022-10-16T07:18:34;10.70;;;8.55;;
61741;SDS011;47650;49.848;9.620;2022-10-16T07:21:19;11.35;;;9.00;;
61741;SDS011;47650;49.848;9.620;2022-10-16T07:23:56;16.40;;;10.63;;
61741;SDS011;47650;49.848;9.620;2022-10-16T07:26:23;10.65;;;8.07;;
61741;SDS011;47650;49.848;9.620;2022-10-16T07:28:50;10.10;;;7.35;;
61741;SDS011;47650;49.848;9.620;2022-10-16T07:31:18;11.55;;;7.05;;
61741;SDS011;47650;49.848;9.620;2022-10-16T07:33:44;8.50;;;7.72;;
61741;SDS011;47650;49.848;9.620;2022-10-16T07:36:13;11.60;;;7.30;;
61741;SDS011;47650;49.848;9.620;2022-10-16T07:38:41;10.57;;;6.88;;
61741;SDS011;47650;49.848;9.620;2022-10-16T07:41:08;10.60;;;6.40;;
61741;SDS011;47650;49.848;9.620;2022-10-16T07:43:36;5.90;;;5.30;;
61741;SDS011;47650;49.848;9.620;2022-10-16T07:46:03;10.93;;;5.60;;
61741;SDS011;47650;49.848;9.620;2022-10-16T07:48:30;5.57;;;4.82;;
61741;SDS011;47650;49.848;9.620;2022-10-16T07:51:02;10.02;;;5.00;;
61741;SDS011;47650;49.848;9.620;2022-10-16T07:53:29;11.05;;;5.28;;
61741;SDS011;47650;49.848;9.620;2022-10-16T07:56:02;9.20;;;5.40;;
61741;SDS011;47650;49.848;9.620;2022-10-16T07:58:30;9.98;;;7.90;;
61741;SDS011;47650;49.848;9.620;2022-10-16T08:00:56;10.93;;;7.20;;
61741;SDS011;47650;49.848;9.620;2022-10-16T08:03:23;11.55;;;7.32;;
61741;SDS011;47650;49.848;9.620;2022-10-16T08:05:51;10.57;;;7.13;;
61741;SDS011;47650;49.848;9.620;2022-10-16T08:08:17;9.85;;;7.80;;
61741;SDS011;47650;49.848;9.620;2022-10-16T08:10:43;10.05;;;9.00;;
61741;SDS011;47650;49.848;9.620;2022-10-16T08:13:11;10.90;;;6.53;;
61741;SDS011;47650;49.848;9.620;2022-10-16T08:15:47;8.93;;;6.03;;
61741;SDS011;47650;49.848;9.620;2022-10-16T08:18:13;8.85;;;4.60;;
61741;SDS011;47650;49.848;9.620;2022-10-16T08:20:39;8.90;;;6.32;;
61741;SDS011;47650;49.848;9.620;2022-10-16T08:23:06;8.75;;;5.78;;
61741;SDS011;47650;49.848;9.620;2022-10-16T08:25:33;6.63;;;4.47;;
61741;SDS011;47650;49.848;9.620;2022-10-16T08:28:00;8.38;;;4.10;;
61741;SDS011;47650;49.848;9.620;2022-10-16T08:30:26;5.55;;;4.22;;
61741;SDS011;47650;49.848;9.620;2022-10-16T08:32:53;5.93;;;3.88;;
61741;SDS011;47650;49.848;9.620;2022-10-16T08:35:18;8.20;;;3.63;;
61741;SDS011;47650;49.848;9.620;2022-10-16T08:37:45;4.22;;;3.05;;
61741;SDS011;47650;49.848;9.620;2022-10-16T08:40:21;5.32;;;2.00;;
61741;SDS011;47650;49.848;9.620;2022-10-16T08:46:00;4.47;;;1.80;;
61741;SDS011;47650;49.848;9.620;2022-10-16T08:49:03;4.88;;;1.95;;
61741;SDS011;47650;49.848;9.620;2022-10-16T08:54:28;5.38;;;1.55;;
61741;SDS011;47650;49.848;9.620;2022-10-16T08:59:46;3.00;;;1.83;;
61741;SDS011;47650;49.848;9.620;2022-10-16T09:04:54;3.90;;;1.38;;
61741;SDS011;47650;49.848;9.620;2022-10-16T09:10:31;3.50;;;1.55;;
61741;SDS011;47650;49.848;9.620;2022-10-16T09:13:17;2.47;;;1.45;;
61741;SDS011;47650;49.848;9.620;2022-10-16T09:15:58;4.90;;;1.38;;
61741;SDS011;47650;49.848;9.620;2022-10-16T09:18:41;4.60;;;1.60;;
61741;SDS011;47650;49.848;9.620;2022-10-16T09:21:21;3.90;;;1.85;;
61741;SDS011;47650;49.848;9.620;2022-10-16T09:23:52;6.47;;;2.10;;
61741;SDS011;47650;49.848;9.620;2022-10-16T09:26:24;4.88;;;2.30;;
61741;SDS011;47650;49.848;9.620;2022-10-16T09:28:51;6.00;;;1.70;;
61741;SDS011;47650;49.848;9.620;2022-10-16T09:31:20;4.10;;;2.00;;
61741;SDS011;47650;49.848;9.620;2022-10-16T09:34:13;5.82;;;2.10;;
61741;SDS011;47650;49.848;9.620;2022-10-16T09:36:45;8.07;;;2.38;;
61741;SDS011;47650;49.848;9.620;2022-10-16T09:39:14;8.07;;;2.78;;
61741;SDS011;47650;49.848;9.620;2022-10-16T09:41:39;5.97;;;2.45;;
61741;SDS011;47650;49.848;9.620;2022-10-16T09:47:19;4.25;;;2.60;;
61741;SDS011;47650;49.848;9.620;2022-10-16T09:49:56;6.88;;;2.83;;
61741;SDS011;47650;49.848;9.620;2022-10-16T09:52:33;8.18;;;2.75;;
61741;SDS011;47650;49.848;9.620;2022-10-16T09:54:59;6.63;;;3.95;;
61741;SDS011;47650;49.848;9.620;2022-10-16T09:57:48;9.68;;;5.00;;
61741;SDS011;47650;49.848;9.620;2022-10-16T10:00:17;7.60;;;4.50;;
61741;SDS011;47650;49.848;9.620;2022-10-16T10:02:44;8.80;;;5.47;;
61741;SDS011;47650;49.848;9.620;2022-10-16T10:05:17;16.95;;;9.15;;
61741;SDS011;47650;49.848;9.620;2022-10-16T10:07:52;18.33;;;10.00;;
61741;SDS011;47650;49.848;9.620;2022-10-16T10:12:52;15.60;;;8.23;;
61741;SDS011;47650;49.848;9.620;2022-10-16T10:15:18;38.08;;;14.70;;
61741;SDS011;47650;49.848;9.620;2022-10-16T10:17:52;18.83;;;7.07;;
61741;SDS011;47650;49.848;9.620;2022-10-16T10:20:31;16.77;;;7.05;;
61741;SDS011;47650;49.848;9.620;2022-10-16T10:22:59;10.07;;;4.80;;
61741;SDS011;47650;49.848;9.620;2022-10-16T10:25:39;9.05;;;3.85;;
61741;SDS011;47650;49.848;9.620;2022-10-16T10:31:23;3.72;;;2.90;;
61741;SDS011;47650;49.848;9.620;2022-10-16T10:34:11;3.85;;;2.80;;
61741;SDS011;47650;49.848;9.620;2022-10-16T10:36:52;7.13;;;3.40;;
61741;SDS011;47650;49.848;9.620;2022-10-16T10:39:38;5.57;;;2.95;;
61741;SDS011;47650;49.848;9.620;2022-10-16T10:42:29;6.40;;;3.20;;
61741;SDS011;47650;49.848;9.620;2022-10-16T10:45:06;4.50;;;2.40;;
61741;SDS011;47650;49.848;9.620;2022-10-16T10:47:47;5.43;;;2.00;;
61741;SDS011;47650;49.848;9.620;2022-10-16T10:53:25;2.20;;;2.00;;
61741;SDS011;47650;49.848;9.620;2022-10-16T10:56:08;3.83;;;2.10;;
61741;SDS011;47650;49.848;9.620;2022-10-16T11:01:46;5.03;;;1.70;;
61741;SDS011;47650;49.848;9.620;2022-10-16T11:07:25;4.30;;;1.40;;
61741;SDS011;47650;49.848;9.620;2022-10-16T11:09:56;2.28;;;1.40;;
61741;SDS011;47650;49.848;9.620;2022-10-16T11:20:48;2.65;;;1.83;;
61741;SDS011;47650;49.848;9.620;2022-10-16T11:23:24;2.42;;;1.58;;
61741;SDS011;47650;49.848;9.620;2022-10-16T11:25:56;4.43;;;1.63;;
61741;SDS011;47650;49.848;9.620;2022-10-16T11:28:36;3.42;;;1.83;;
61741;SDS011;47650;49.848;9.620;2022-10-16T11:34:25;1.92;;;1.48;;
61741;SDS011;47650;49.848;9.620;2022-10-16T11:36:53;3.97;;;1.55;;
61741;SDS011;47650;49.848;9.620;2022-10-16T11:39:29;1.75;;;1.40;;
61741;SDS011;47650;49.848;9.620;2022-10-16T11:42:10;3.35;;;1.40;;
61741;SDS011;47650;49.848;9.620;2022-10-16T11:47:37;2.72;;;1.67;;
61741;SDS011;47650;49.848;9.620;2022-10-16T11:52:55;2.50;;;1.50;;
61741;SDS011;47650;49.848;9.620;2022-10-16T11:55:44;2.83;;;1.30;;
61741;SDS011;47650;49.848;9.620;2022-10-16T11:58:20;2.72;;;1.55;;
61741;SDS011;47650;49.848;9.620;2022-10-16T12:08:53;2.72;;;1.55;;
61741;SDS011;47650;49.848;9.620;2022-10-16T12:11:23;1.63;;;1.30;;
61741;SDS011;47650;49.848;9.620;2022-10-16T12:13:49;1.30;;;1.20;;
61741;SDS011;47650;49.848;9.620;2022-10-16T12:18:41;3.07;;;1.17;;
61741;SDS011;47650;49.848;9.620;2022-10-16T12:21:11;2.55;;;1.20;;
61741;SDS011;47650;49.848;9.620;2022-10-16T12:23:50;4.93;;;1.20;;
61741;SDS011;47650;49.848;9.620;2022-10-16T12:26:50;1.98;;;1.20;;
61741;SDS011;47650;49.848;9.620;2022-10-16T12:31:43;3.20;;;1.40;;
61741;SDS011;47650;49.848;9.620;2022-10-16T12:34:25;2.30;;;1.10;;
61741;SDS011;47650;49.848;9.620;2022-10-16T12:39:58;2.28;;;1.25;;
61741;SDS011;47650;49.848;9.620;2022-10-16T12:44:53;1.80;;;1.10;;
61741;SDS011;47650;49.848;9.620;2022-10-16T12:47:23;1.20;;;1.10;;
61741;SDS011;47650;49.848;9.620;2022-10-16T12:49:54;3.40;;;1.30;;
61741;SDS011;47650;49.848;9.620;2022-10-16T12:52:27;3.42;;;1.35;;
61741;SDS011;47650;49.848;9.620;2022-10-16T12:55:03;3.10;;;1.45;;
61741;SDS011;47650;49.848;9.620;2022-10-16T13:00:57;1.45;;;1.20;;
61741;SDS011;47650;49.848;9.620;2022-10-16T13:08:52;2.28;;;1.35;;
61741;SDS011;47650;49.848;9.620;2022-10-16T13:11:44;1.60;;;1.30;;
61741;SDS011;47650;49.848;9.620;2022-10-16T13:14:33;2.55;;;1.30;;
61741;SDS011;47650;49.848;9.620;2022-10-16T13:19:42;5.13;;;1.30;;
61741;SDS011;47650;49.848;9.620;2022-10-16T13:22:36;1.83;;;1.33;;
61741;SDS011;47650;49.848;9.620;2022-10-16T13:28:17;3.85;;;1.30;;
61741;SDS011;47650;49.848;9.620;2022-10-16T13:30:51;4.13;;;1.63;;
61741;SDS011;47650;49.848;9.620;2022-10-16T13:33:30;1.30;;;1.20;;
61741;SDS011;47650;49.848;9.620;2022-10-16T13:35:58;3.45;;;1.20;;
61741;SDS011;47650;49.848;9.620;2022-10-16T13:38:25;1.90;;;1.20;;
61741;SDS011;47650;49.848;9.620;2022-10-16T13:40:53;1.63;;;1.20;;
61741;SDS011;47650;49.848;9.620;2022-10-16T13:43:42;3.13;;;1.45;;
61741;SDS011;47650;49.848;9.620;2022-10-16T13:46:19;2.58;;;1.58;;
61741;SDS011;47650;49.848;9.620;2022-10-16T13:49:10;2.53;;;1.10;;
61741;SDS011;47650;49.848;9.620;2022-10-16T13:51:38;1.83;;;1.17;;
61741;SDS011;47650;49.848;9.620;2022-10-16T13:54:04;2.20;;;1.10;;
61741;SDS011;47650;49.848;9.620;2022-10-16T13:56:31;4.00;;;1.50;;
61741;SDS011;47650;49.848;9.620;2022-10-16T13:59:01;3.38;;;1.33;;
61741;SDS011;47650;49.848;9.620;2022-10-16T14:01:33;5.20;;;1.63;;
61741;SDS011;47650;49.848;9.620;2022-10-16T14:04:06;2.33;;;1.33;;
61741;SDS011;47650;49.848;9.620;2022-10-16T14:06:33;3.15;;;1.60;;
61741;SDS011;47650;49.848;9.620;2022-10-16T14:09:08;4.15;;;1.42;;
61741;SDS011;47650;49.848;9.620;2022-10-16T14:14:34;3.70;;;1.90;;
61741;SDS011;47650;49.848;9.620;2022-10-16T14:17:06;4.05;;;1.50;;
61741;SDS011;47650;49.848;9.620;2022-10-16T14:22:11;3.20;;;1.40;;
61741;SDS011;47650;49.848;9.620;2022-10-16T14:24:49;2.25;;;1.50;;
61741;SDS011;47650;49.848;9.620;2022-10-16T14:27:35;3.80;;;1.58;;
61741;SDS011;47650;49.848;9.620;2022-10-16T14:32:32;6.32;;;2.22;;
61741;SDS011;47650;49.848;9.620;2022-10-16T14:34:59;3.65;;;1.70;;
61741;SDS011;47650;49.848;9.620;2022-10-16T14:37:26;6.22;;;1.65;;
61741;SDS011;47650;49.848;9.620;2022-10-16T14:39:53;2.83;;;1.48;;
61741;SDS011;47650;49.848;9.620;2022-10-16T14:42:20;8.15;;;1.90;;
61741;SDS011;47650;49.848;9.620;2022-10-16T14:44:50;3.33;;;1.67;;
61741;SDS011;47650;49.848;9.620;2022-10-16T14:47:22;3.90;;;1.77;;
61741;SDS011;47650;49.848;9.620;2022-10-16T14:49:51;6.13;;;3.00;;
61741;SDS011;47650;49.848;9.620;2022-10-16T14:52:18;5.05;;;2.28;;
61741;SDS011;47650;49.848;9.620;2022-10-16T14:54:47;3.65;;;2.00;;
61741;SDS011;47650;49.848;9.620;2022-10-16T14:57:31;4.60;;;1.70;;
61741;SDS011;47650;49.848;9.620;2022-10-16T15:00:00;4.38;;;1.90;;
61741;SDS011;47650;49.848;9.620;2022-10-16T15:02:30;4.47;;;1.85;;
61741;SDS011;47650;49.848;9.620;2022-10-16T15:04:57;6.75;;;2.60;;
61741;SDS011;47650;49.848;9.620;2022-10-16T15:07:35;7.18;;;4.18;;
61741;SDS011;47650;49.848;9.620;2022-10-16T15:10:00;9.20;;;7.43;;
61741;SDS011;47650;49.848;9.620;2022-10-16T15:12:27;5.72;;;3.30;;
61741;SDS011;47650;49.848;9.620;2022-10-16T15:14:58;6.00;;;2.67;;
61741;SDS011;47650;49.848;9.620;2022-10-16T15:17:23;5.43;;;2.88;;
61741;SDS011;47650;49.848;9.620;2022-10-16T15:19:49;6.28;;;2.97;;
61741;SDS011;47650;49.848;9.620;2022-10-16T15:22:16;7.75;;;3.58;;
61741;SDS011;47650;49.848;9.620;2022-10-16T15:24:41;5.55;;;2.40;;
61741;SDS011;47650;49.848;9.620;2022-10-16T15:27:07;9.55;;;2.97;;
61741;SDS011;47650;49.848;9.620;2022-10-16T15:29:32;7.95;;;6.30;;
61741;SDS011;47650;49.848;9.620;2022-10-16T15:31:58;8.90;;;5.78;;
61741;SDS011;47650;49.848;9.620;2022-10-16T15:34:25;16.58;;;11.32;;
61741;SDS011;47650;49.848;9.620;2022-10-16T15:36:51;18.77;;;9.93;;
61741;SDS011;47650;49.848;9.620;2022-10-16T15:39:19;16.52;;;7.63;;
61741;SDS011;47650;49.848;9.620;2022-10-16T15:41:46;11.30;;;4.35;;
61741;SDS011;47650;49.848;9.620;2022-10-16T15:44:18;29.75;;;13.15;;
61741;SDS011;47650;49.848;9.620;2022-10-16T15:46:45;14.38;;;5.97;;
61741;SDS011;47650;49.848;9.620;2022-10-16T15:49:10;12.60;;;4.53;;
61741;SDS011;47650;49.848;9.620;2022-10-16T15:51:39;10.27;;;3.47;;
61741;SDS011;47650;49.848;9.620;2022-10-16T15:54:05;7.63;;;3.55;;
61741;SDS011;47650;49.848;9.620;2022-10-16T15:56:31;9.35;;;3.10;;
61741;SDS011;47650;49.848;9.620;2022-10-16T15:58:58;9.20;;;3.92;;
61741;SDS011;47650;49.848;9.620;2022-10-16T16:01:24;16.15;;;6.78;;
61741;SDS011;47650;49.848;9.620;2022-10-16T16:03:53;19.25;;;14.23;;
61741;SDS011;47650;49.848;9.620;2022-10-16T16:06:19;13.32;;;9.82;;
61741;SDS011;47650;49.848;9.620;2022-10-16T16:08:45;11.13;;;8.10;;
61741;SDS011;47650;49.848;9.620;2022-10-16T16:11:12;13.68;;;6.85;;
61741;SDS011;47650;49.848;9.620;2022-10-16T16:13:38;12.93;;;6.00;;
61741;SDS011;47650;49.848;9.620;2022-10-16T16:16:12;8.40;;;4.22;;
61741;SDS011;47650;49.848;9.620;2022-10-16T16:18:39;8.65;;;4.20;;
61741;SDS011;47650;49.848;9.620;2022-10-16T16:21:09;16.58;;;4.80;;
61741;SDS011;47650;49.848;9.620;2022-10-16T16:23:36;10.70;;;4.88;;
61741;SDS011;47650;49.848;9.620;2022-10-16T16:28:48;7.32;;;5.47;;
61741;SDS011;47650;49.848;9.620;2022-10-16T16:31:16;9.65;;;5.80;;
61741;SDS011;47650;49.848;9.620;2022-10-16T16:33:43;24.15;;;15.57;;
61741;SDS011;47650;49.848;9.620;2022-10-16T16:36:08;13.23;;;11.65;;
61741;SDS011;47650;49.848;9.620;2022-10-16T16:38:42;10.07;;;6.30;;
61741;SDS011;47650;49.848;9.620;2022-10-16T16:41:14;8.02;;;4.40;;
61741;SDS011;47650;49.848;9.620;2022-10-16T16:43:44;12.52;;;6.40;;
61741;SDS011;47650;49.848;9.620;2022-10-16T16:46:13;10.05;;;6.18;;
61741;SDS011;47650;49.848;9.620;2022-10-16T16:48:41;9.75;;;6.43;;